sensor_id;sensor_type;location;lat;lon;timestamp;P1;durP1;ratioP1;P2;durP2;ratioP2
21392;SDS011;10857;52.228;21.026;2024-03-02T00:01:37;62.63;;;35.00;;
21392;SDS011;10857;52.228;21.026;2024-03-02T00:04:04;64.90;;;35.33;;
21392;SDS011;10857;52.228;21.026;2024-03-02T00:06:33;66.30;;;35.47;;
21392;SDS011;10857;52.228;21.026;2024-03-02T00:09:01;63.93;;;34.70;;
21392;SDS011;10857;52.228;21.026;2024-03-02T00:11:29;69.23;;;34.43;;
21392;SDS011;10857;52.228;21.026;2024-03-02T00:13:56;68.07;;;36.10;;
21392;SDS011;10857;52.228;21.026;2024-03-02T00:16:23;63.87;;;34.87;;
21392;SDS011;10857;52.228;21.026;2024-03-02T00:18:55;66.40;;;34.73;;
21392;SDS011;10857;52.228;21.026;2024-03-02T00:21:24;63.63;;;34.73;;
21392;SDS011;10857;52.228;21.026;2024-03-02T00:23:54;67.70;;;34.20;;
21392;SDS011;10857;52.228;21.026;2024-03-02T00:26:21;65.10;;;34.50;;
21392;SDS011;10857;52.228;21.026;2024-03-02T00:28:48;66.03;;;34.13;;
21392;SDS011;10857;52.228;21.026;2024-03-02T00:31:16;66.07;;;34.37;;
21392;SDS011;10857;52.228;21.026;2024-03-02T00:33:47;64.53;;;34.57;;
21392;SDS011;10857;52.228;21.026;2024-03-02T00:36:15;66.33;;;35.10;;
21392;SDS011;10857;52.228;21.026;2024-03-02T00:38:50;61.57;;;33.93;;
21392;SDS011;10857;52.228;21.026;2024-03-02T00:41:22;61.77;;;33.97;;
21392;SDS011;10857;52.228;21.026;2024-03-02T00:43:58;65.87;;;34.20;;
21392;SDS011;10857;52.228;21.026;2024-03-02T00:46:27;63.10;;;34.07;;
21392;SDS011;10857;52.228;21.026;2024-03-02T00:48:56;63.97;;;34.07;;
21392;SDS011;10857;52.228;21.026;2024-03-02T00:51:32;63.20;;;33.13;;
21392;SDS011;10857;52.228;21.026;2024-03-02T00:54:04;60.63;;;33.93;;
21392;SDS011;10857;52.228;21.026;2024-03-02T00:56:32;63.63;;;32.70;;
21392;SDS011;10857;52.228;21.026;2024-03-02T00:59:01;67.53;;;34.40;;
21392;SDS011;10857;52.228;21.026;2024-03-02T01:01:28;66.90;;;34.20;;
21392;SDS011;10857;52.228;21.026;2024-03-02T01:03:56;66.90;;;34.87;;
21392;SDS011;10857;52.228;21.026;2024-03-02T01:06:23;64.10;;;34.00;;
21392;SDS011;10857;52.228;21.026;2024-03-02T01:08:50;61.43;;;33.97;;
21392;SDS011;10857;52.228;21.026;2024-03-02T01:11:19;67.87;;;33.97;;
21392;SDS011;10857;52.228;21.026;2024-03-02T01:13:49;66.83;;;35.13;;
21392;SDS011;10857;52.228;21.026;2024-03-02T01:16:18;64.07;;;33.73;;
21392;SDS011;10857;52.228;21.026;2024-03-02T01:18:45;64.00;;;33.53;;
21392;SDS011;10857;52.228;21.026;2024-03-02T01:21:13;61.13;;;32.77;;
21392;SDS011;10857;52.228;21.026;2024-03-02T01:23:41;62.97;;;34.13;;
21392;SDS011;10857;52.228;21.026;2024-03-02T01:26:08;60.97;;;32.67;;
21392;SDS011;10857;52.228;21.026;2024-03-02T01:28:35;63.73;;;33.37;;
21392;SDS011;10857;52.228;21.026;2024-03-02T01:31:02;63.73;;;33.23;;
21392;SDS011;10857;52.228;21.026;2024-03-02T01:33:30;60.27;;;32.70;;
21392;SDS011;10857;52.228;21.026;2024-03-02T01:35:57;63.83;;;33.30;;
21392;SDS011;10857;52.228;21.026;2024-03-02T01:38:24;62.63;;;33.77;;
21392;SDS011;10857;52.228;21.026;2024-03-02T01:40:51;60.37;;;32.77;;
21392;SDS011;10857;52.228;21.026;2024-03-02T01:43:18;61.20;;;33.37;;
21392;SDS011;10857;52.228;21.026;2024-03-02T01:45:45;62.37;;;32.87;;
21392;SDS011;10857;52.228;21.026;2024-03-02T01:48:13;59.20;;;32.50;;
21392;SDS011;10857;52.228;21.026;2024-03-02T01:50:40;60.90;;;33.77;;
21392;SDS011;10857;52.228;21.026;2024-03-02T01:53:07;60.53;;;32.80;;
21392;SDS011;10857;52.228;21.026;2024-03-02T01:55:36;62.10;;;33.73;;
21392;SDS011;10857;52.228;21.026;2024-03-02T01:58:03;62.80;;;33.43;;
21392;SDS011;10857;52.228;21.026;2024-03-02T02:00:30;64.47;;;33.40;;
21392;SDS011;10857;52.228;21.026;2024-03-02T02:02:58;62.53;;;33.33;;
21392;SDS011;10857;52.228;21.026;2024-03-02T02:05:26;61.97;;;32.70;;
21392;SDS011;10857;52.228;21.026;2024-03-02T02:07:53;60.83;;;33.20;;
21392;SDS011;10857;52.228;21.026;2024-03-02T02:10:20;61.33;;;32.80;;
21392;SDS011;10857;52.228;21.026;2024-03-02T02:12:49;61.43;;;32.27;;
21392;SDS011;10857;52.228;21.026;2024-03-02T02:15:26;58.90;;;32.77;;
21392;SDS011;10857;52.228;21.026;2024-03-02T02:17:55;56.63;;;31.60;;
21392;SDS011;10857;52.228;21.026;2024-03-02T02:20:23;61.13;;;32.67;;
21392;SDS011;10857;52.228;21.026;2024-03-02T02:22:57;62.50;;;32.83;;
21392;SDS011;10857;52.228;21.026;2024-03-02T02:25:29;57.27;;;31.17;;
21392;SDS011;10857;52.228;21.026;2024-03-02T02:27:57;58.40;;;32.10;;
21392;SDS011;10857;52.228;21.026;2024-03-02T02:30:26;58.93;;;32.07;;
21392;SDS011;10857;52.228;21.026;2024-03-02T02:32:55;61.97;;;33.27;;
21392;SDS011;10857;52.228;21.026;2024-03-02T02:35:22;57.97;;;31.37;;
21392;SDS011;10857;52.228;21.026;2024-03-02T02:37:53;57.70;;;32.40;;
21392;SDS011;10857;52.228;21.026;2024-03-02T02:40:22;59.53;;;32.30;;
21392;SDS011;10857;52.228;21.026;2024-03-02T02:42:49;60.83;;;32.07;;
21392;SDS011;10857;52.228;21.026;2024-03-02T02:45:19;58.63;;;31.77;;
21392;SDS011;10857;52.228;21.026;2024-03-02T02:47:46;61.47;;;31.60;;
21392;SDS011;10857;52.228;21.026;2024-03-02T02:50:13;57.60;;;31.40;;
21392;SDS011;10857;52.228;21.026;2024-03-02T02:52:41;60.10;;;32.17;;
21392;SDS011;10857;52.228;21.026;2024-03-02T02:55:10;57.07;;;31.70;;
21392;SDS011;10857;52.228;21.026;2024-03-02T02:57:39;57.97;;;31.63;;
21392;SDS011;10857;52.228;21.026;2024-03-02T03:00:13;55.87;;;31.00;;
21392;SDS011;10857;52.228;21.026;2024-03-02T03:02:43;58.57;;;31.53;;
21392;SDS011;10857;52.228;21.026;2024-03-02T03:05:12;54.50;;;30.93;;
21392;SDS011;10857;52.228;21.026;2024-03-02T03:07:41;56.50;;;30.23;;
21392;SDS011;10857;52.228;21.026;2024-03-02T03:10:09;56.63;;;30.77;;
21392;SDS011;10857;52.228;21.026;2024-03-02T03:12:37;56.50;;;30.97;;
21392;SDS011;10857;52.228;21.026;2024-03-02T03:15:04;55.23;;;30.63;;
21392;SDS011;10857;52.228;21.026;2024-03-02T03:17:33;58.33;;;32.03;;
21392;SDS011;10857;52.228;21.026;2024-03-02T03:20:01;52.80;;;30.30;;
21392;SDS011;10857;52.228;21.026;2024-03-02T03:22:30;56.83;;;31.47;;
21392;SDS011;10857;52.228;21.026;2024-03-02T03:24:58;57.87;;;30.93;;
21392;SDS011;10857;52.228;21.026;2024-03-02T03:27:26;56.20;;;30.17;;
21392;SDS011;10857;52.228;21.026;2024-03-02T03:29:53;61.33;;;31.23;;
21392;SDS011;10857;52.228;21.026;2024-03-02T03:32:21;57.47;;;30.47;;
21392;SDS011;10857;52.228;21.026;2024-03-02T03:34:48;58.00;;;31.10;;
21392;SDS011;10857;52.228;21.026;2024-03-02T03:37:15;55.20;;;30.03;;
21392;SDS011;10857;52.228;21.026;2024-03-02T03:39:42;56.63;;;31.27;;
21392;SDS011;10857;52.228;21.026;2024-03-02T03:42:09;56.67;;;30.03;;
21392;SDS011;10857;52.228;21.026;2024-03-02T03:44:36;58.83;;;29.90;;
21392;SDS011;10857;52.228;21.026;2024-03-02T03:47:05;54.73;;;29.87;;
21392;SDS011;10857;52.228;21.026;2024-03-02T03:49:33;53.63;;;29.80;;
21392;SDS011;10857;52.228;21.026;2024-03-02T03:52:00;54.07;;;30.10;;
21392;SDS011;10857;52.228;21.026;2024-03-02T03:54:27;55.57;;;29.53;;
21392;SDS011;10857;52.228;21.026;2024-03-02T03:56:55;57.80;;;30.80;;
21392;SDS011;10857;52.228;21.026;2024-03-02T03:59:22;62.13;;;30.77;;
21392;SDS011;10857;52.228;21.026;2024-03-02T04:01:50;59.10;;;30.37;;
21392;SDS011;10857;52.228;21.026;2024-03-02T04:04:18;57.63;;;31.27;;
21392;SDS011;10857;52.228;21.026;2024-03-02T04:06:45;56.77;;;29.83;;
21392;SDS011;10857;52.228;21.026;2024-03-02T04:09:12;54.93;;;30.17;;
21392;SDS011;10857;52.228;21.026;2024-03-02T04:11:39;59.77;;;31.20;;
21392;SDS011;10857;52.228;21.026;2024-03-02T04:14:06;58.27;;;30.70;;
21392;SDS011;10857;52.228;21.026;2024-03-02T04:16:35;58.17;;;30.90;;
21392;SDS011;10857;52.228;21.026;2024-03-02T04:19:02;59.37;;;31.00;;
21392;SDS011;10857;52.228;21.026;2024-03-02T04:21:30;55.87;;;30.53;;
21392;SDS011;10857;52.228;21.026;2024-03-02T04:23:58;58.70;;;30.87;;
21392;SDS011;10857;52.228;21.026;2024-03-02T04:26:26;60.40;;;30.43;;
21392;SDS011;10857;52.228;21.026;2024-03-02T04:28:53;58.23;;;31.10;;
21392;SDS011;10857;52.228;21.026;2024-03-02T04:31:20;57.93;;;30.27;;
21392;SDS011;10857;52.228;21.026;2024-03-02T04:33:47;54.63;;;30.03;;
21392;SDS011;10857;52.228;21.026;2024-03-02T04:36:15;60.53;;;31.63;;
21392;SDS011;10857;52.228;21.026;2024-03-02T04:38:42;58.20;;;30.67;;
21392;SDS011;10857;52.228;21.026;2024-03-02T04:41:09;59.77;;;31.17;;
21392;SDS011;10857;52.228;21.026;2024-03-02T04:43:36;61.77;;;32.03;;
21392;SDS011;10857;52.228;21.026;2024-03-02T04:46:03;61.40;;;30.63;;
21392;SDS011;10857;52.228;21.026;2024-03-02T04:48:31;60.83;;;31.57;;
21392;SDS011;10857;52.228;21.026;2024-03-02T04:50:58;59.10;;;30.17;;
21392;SDS011;10857;52.228;21.026;2024-03-02T04:53:26;59.03;;;31.30;;
21392;SDS011;10857;52.228;21.026;2024-03-02T04:55:53;58.77;;;31.13;;
21392;SDS011;10857;52.228;21.026;2024-03-02T04:58:20;61.77;;;31.00;;
21392;SDS011;10857;52.228;21.026;2024-03-02T05:00:47;57.53;;;30.43;;
21392;SDS011;10857;52.228;21.026;2024-03-02T05:03:14;62.17;;;31.87;;
21392;SDS011;10857;52.228;21.026;2024-03-02T05:05:41;59.23;;;30.13;;
21392;SDS011;10857;52.228;21.026;2024-03-02T05:08:08;55.43;;;29.93;;
21392;SDS011;10857;52.228;21.026;2024-03-02T05:10:38;59.27;;;30.57;;
21392;SDS011;10857;52.228;21.026;2024-03-02T05:13:05;62.37;;;32.03;;
21392;SDS011;10857;52.228;21.026;2024-03-02T05:15:33;61.47;;;31.43;;
21392;SDS011;10857;52.228;21.026;2024-03-02T05:18:00;64.10;;;30.40;;
21392;SDS011;10857;52.228;21.026;2024-03-02T05:20:29;57.57;;;29.60;;
21392;SDS011;10857;52.228;21.026;2024-03-02T05:22:56;56.73;;;30.40;;
21392;SDS011;10857;52.228;21.026;2024-03-02T05:25:23;61.60;;;30.27;;
21392;SDS011;10857;52.228;21.026;2024-03-02T05:27:50;58.63;;;29.43;;
21392;SDS011;10857;52.228;21.026;2024-03-02T05:30:18;58.17;;;29.67;;
21392;SDS011;10857;52.228;21.026;2024-03-02T05:32:45;57.37;;;29.40;;
21392;SDS011;10857;52.228;21.026;2024-03-02T05:35:12;57.83;;;28.50;;
21392;SDS011;10857;52.228;21.026;2024-03-02T05:37:39;58.23;;;29.40;;
21392;SDS011;10857;52.228;21.026;2024-03-02T05:40:07;58.53;;;30.20;;
21392;SDS011;10857;52.228;21.026;2024-03-02T05:42:34;59.80;;;29.97;;
21392;SDS011;10857;52.228;21.026;2024-03-02T05:45:01;59.00;;;28.77;;
21392;SDS011;10857;52.228;21.026;2024-03-02T05:47:28;61.00;;;29.63;;
21392;SDS011;10857;52.228;21.026;2024-03-02T05:49:55;60.67;;;29.57;;
21392;SDS011;10857;52.228;21.026;2024-03-02T05:52:22;53.90;;;28.10;;
21392;SDS011;10857;52.228;21.026;2024-03-02T05:54:49;58.27;;;29.67;;
21392;SDS011;10857;52.228;21.026;2024-03-02T05:57:17;58.87;;;29.27;;
21392;SDS011;10857;52.228;21.026;2024-03-02T05:59:55;56.57;;;28.97;;
21392;SDS011;10857;52.228;21.026;2024-03-02T06:02:23;55.17;;;28.37;;
21392;SDS011;10857;52.228;21.026;2024-03-02T06:04:50;60.47;;;30.03;;
21392;SDS011;10857;52.228;21.026;2024-03-02T06:07:17;55.10;;;28.23;;
21392;SDS011;10857;52.228;21.026;2024-03-02T06:09:44;57.47;;;29.23;;
21392;SDS011;10857;52.228;21.026;2024-03-02T06:12:11;56.97;;;27.77;;
21392;SDS011;10857;52.228;21.026;2024-03-02T06:14:38;54.97;;;28.07;;
21392;SDS011;10857;52.228;21.026;2024-03-02T06:17:05;55.10;;;28.37;;
21392;SDS011;10857;52.228;21.026;2024-03-02T06:19:34;55.13;;;28.43;;
21392;SDS011;10857;52.228;21.026;2024-03-02T06:22:01;57.10;;;28.17;;
21392;SDS011;10857;52.228;21.026;2024-03-02T06:24:28;51.43;;;26.73;;
21392;SDS011;10857;52.228;21.026;2024-03-02T06:26:55;53.83;;;28.03;;
21392;SDS011;10857;52.228;21.026;2024-03-02T06:29:22;53.83;;;28.57;;
21392;SDS011;10857;52.228;21.026;2024-03-02T06:31:49;56.23;;;27.37;;
21392;SDS011;10857;52.228;21.026;2024-03-02T06:34:20;52.63;;;27.63;;
21392;SDS011;10857;52.228;21.026;2024-03-02T06:36:47;53.33;;;26.87;;
21392;SDS011;10857;52.228;21.026;2024-03-02T06:39:14;56.83;;;27.70;;
21392;SDS011;10857;52.228;21.026;2024-03-02T06:41:41;53.47;;;27.30;;
21392;SDS011;10857;52.228;21.026;2024-03-02T06:44:13;50.50;;;26.43;;
21392;SDS011;10857;52.228;21.026;2024-03-02T06:46:40;50.70;;;26.87;;
21392;SDS011;10857;52.228;21.026;2024-03-02T06:49:09;54.73;;;28.20;;
21392;SDS011;10857;52.228;21.026;2024-03-02T06:51:39;51.03;;;26.43;;
21392;SDS011;10857;52.228;21.026;2024-03-02T06:54:06;50.50;;;26.60;;
21392;SDS011;10857;52.228;21.026;2024-03-02T06:56:33;50.40;;;25.40;;
21392;SDS011;10857;52.228;21.026;2024-03-02T06:59:00;49.90;;;26.07;;
21392;SDS011;10857;52.228;21.026;2024-03-02T07:01:27;50.77;;;26.20;;
21392;SDS011;10857;52.228;21.026;2024-03-02T07:03:54;51.37;;;27.17;;
21392;SDS011;10857;52.228;21.026;2024-03-02T07:06:21;48.67;;;25.40;;
21392;SDS011;10857;52.228;21.026;2024-03-02T07:08:48;52.17;;;26.63;;
21392;SDS011;10857;52.228;21.026;2024-03-02T07:11:16;53.50;;;26.93;;
21392;SDS011;10857;52.228;21.026;2024-03-02T07:13:43;56.07;;;26.17;;
21392;SDS011;10857;52.228;21.026;2024-03-02T07:16:10;49.97;;;26.13;;
21392;SDS011;10857;52.228;21.026;2024-03-02T07:18:37;50.10;;;25.73;;
21392;SDS011;10857;52.228;21.026;2024-03-02T07:21:08;48.93;;;25.37;;
21392;SDS011;10857;52.228;21.026;2024-03-02T07:23:35;51.13;;;26.60;;
21392;SDS011;10857;52.228;21.026;2024-03-02T07:26:02;45.83;;;24.73;;
21392;SDS011;10857;52.228;21.026;2024-03-02T07:28:33;47.67;;;24.37;;
21392;SDS011;10857;52.228;21.026;2024-03-02T07:31:01;48.30;;;24.43;;
21392;SDS011;10857;52.228;21.026;2024-03-02T07:33:31;49.30;;;25.00;;
21392;SDS011;10857;52.228;21.026;2024-03-02T07:35:59;52.77;;;24.70;;
21392;SDS011;10857;52.228;21.026;2024-03-02T07:38:30;52.50;;;26.40;;
21392;SDS011;10857;52.228;21.026;2024-03-02T07:40:58;49.10;;;25.03;;
21392;SDS011;10857;52.228;21.026;2024-03-02T07:43:26;48.10;;;24.53;;
21392;SDS011;10857;52.228;21.026;2024-03-02T07:45:53;45.87;;;24.40;;
21392;SDS011;10857;52.228;21.026;2024-03-02T07:48:22;48.47;;;24.60;;
21392;SDS011;10857;52.228;21.026;2024-03-02T07:50:49;47.63;;;24.43;;
21392;SDS011;10857;52.228;21.026;2024-03-02T07:53:16;47.90;;;25.33;;
21392;SDS011;10857;52.228;21.026;2024-03-02T07:55:43;48.30;;;24.27;;
21392;SDS011;10857;52.228;21.026;2024-03-02T07:58:10;49.17;;;24.80;;
21392;SDS011;10857;52.228;21.026;2024-03-02T08:00:41;48.00;;;24.07;;
21392;SDS011;10857;52.228;21.026;2024-03-02T08:03:08;48.07;;;24.67;;
21392;SDS011;10857;52.228;21.026;2024-03-02T08:05:38;48.27;;;24.33;;
21392;SDS011;10857;52.228;21.026;2024-03-02T08:08:05;45.03;;;23.33;;
21392;SDS011;10857;52.228;21.026;2024-03-02T08:10:32;51.50;;;24.97;;
21392;SDS011;10857;52.228;21.026;2024-03-02T08:13:00;47.53;;;23.90;;
21392;SDS011;10857;52.228;21.026;2024-03-02T08:15:27;43.33;;;23.37;;
21392;SDS011;10857;52.228;21.026;2024-03-02T08:17:54;47.53;;;23.97;;
21392;SDS011;10857;52.228;21.026;2024-03-02T08:20:22;46.93;;;24.13;;
21392;SDS011;10857;52.228;21.026;2024-03-02T08:22:50;46.50;;;24.17;;
21392;SDS011;10857;52.228;21.026;2024-03-02T08:25:17;47.70;;;24.40;;
21392;SDS011;10857;52.228;21.026;2024-03-02T08:27:44;44.33;;;23.43;;
21392;SDS011;10857;52.228;21.026;2024-03-02T08:30:11;50.27;;;24.77;;
21392;SDS011;10857;52.228;21.026;2024-03-02T08:32:39;50.30;;;24.83;;
21392;SDS011;10857;52.228;21.026;2024-03-02T08:35:07;51.53;;;25.43;;
21392;SDS011;10857;52.228;21.026;2024-03-02T08:37:34;47.57;;;24.07;;
21392;SDS011;10857;52.228;21.026;2024-03-02T08:40:03;50.10;;;26.58;;
21392;SDS011;10857;52.228;21.026;2024-03-02T08:42:31;46.33;;;24.23;;
21392;SDS011;10857;52.228;21.026;2024-03-02T08:45:00;47.37;;;23.97;;
21392;SDS011;10857;52.228;21.026;2024-03-02T08:47:28;51.77;;;24.53;;
21392;SDS011;10857;52.228;21.026;2024-03-02T08:49:55;51.43;;;25.33;;
21392;SDS011;10857;52.228;21.026;2024-03-02T08:52:26;45.93;;;24.10;;
21392;SDS011;10857;52.228;21.026;2024-03-02T08:54:53;47.97;;;23.83;;
21392;SDS011;10857;52.228;21.026;2024-03-02T08:57:23;56.07;;;25.27;;
21392;SDS011;10857;52.228;21.026;2024-03-02T08:59:50;46.17;;;23.80;;
21392;SDS011;10857;52.228;21.026;2024-03-02T09:02:18;47.53;;;24.43;;
21392;SDS011;10857;52.228;21.026;2024-03-02T09:04:45;53.73;;;25.80;;
21392;SDS011;10857;52.228;21.026;2024-03-02T09:07:12;47.97;;;24.57;;
21392;SDS011;10857;52.228;21.026;2024-03-02T09:09:40;49.43;;;24.23;;
21392;SDS011;10857;52.228;21.026;2024-03-02T09:12:07;46.40;;;23.77;;
21392;SDS011;10857;52.228;21.026;2024-03-02T09:14:35;47.70;;;23.90;;
21392;SDS011;10857;52.228;21.026;2024-03-02T09:17:03;46.17;;;23.43;;
21392;SDS011;10857;52.228;21.026;2024-03-02T09:19:30;49.50;;;24.07;;
21392;SDS011;10857;52.228;21.026;2024-03-02T09:21:57;49.43;;;24.30;;
21392;SDS011;10857;52.228;21.026;2024-03-02T09:24:25;48.10;;;25.00;;
21392;SDS011;10857;52.228;21.026;2024-03-02T09:26:52;51.67;;;23.97;;
21392;SDS011;10857;52.228;21.026;2024-03-02T09:29:19;48.00;;;24.30;;
21392;SDS011;10857;52.228;21.026;2024-03-02T09:31:47;49.43;;;24.13;;
21392;SDS011;10857;52.228;21.026;2024-03-02T09:34:16;46.88;;;27.80;;
21392;SDS011;10857;52.228;21.026;2024-03-02T09:36:43;45.67;;;24.23;;
21392;SDS011;10857;52.228;21.026;2024-03-02T09:39:10;49.77;;;24.30;;
21392;SDS011;10857;52.228;21.026;2024-03-02T09:41:40;50.93;;;24.73;;
21392;SDS011;10857;52.228;21.026;2024-03-02T09:44:09;43.53;;;22.63;;
21392;SDS011;10857;52.228;21.026;2024-03-02T09:46:36;47.10;;;24.07;;
21392;SDS011;10857;52.228;21.026;2024-03-02T09:49:03;45.97;;;23.63;;
21392;SDS011;10857;52.228;21.026;2024-03-02T09:51:31;47.87;;;23.83;;
21392;SDS011;10857;52.228;21.026;2024-03-02T09:53:58;48.17;;;24.57;;
21392;SDS011;10857;52.228;21.026;2024-03-02T09:56:43;47.57;;;24.03;;
21392;SDS011;10857;52.228;21.026;2024-03-02T09:59:11;48.60;;;28.33;;
21392;SDS011;10857;52.228;21.026;2024-03-02T10:01:39;55.80;;;26.07;;
21392;SDS011;10857;52.228;21.026;2024-03-02T10:04:21;47.60;;;24.83;;
21392;SDS011;10857;52.228;21.026;2024-03-02T10:06:49;49.33;;;24.80;;
21392;SDS011;10857;52.228;21.026;2024-03-02T10:09:26;47.07;;;25.03;;
21392;SDS011;10857;52.228;21.026;2024-03-02T10:12:03;49.40;;;24.67;;
21392;SDS011;10857;52.228;21.026;2024-03-02T10:14:31;50.27;;;24.67;;
21392;SDS011;10857;52.228;21.026;2024-03-02T10:17:05;49.60;;;24.33;;
21392;SDS011;10857;52.228;21.026;2024-03-02T10:19:34;46.20;;;23.37;;
21392;SDS011;10857;52.228;21.026;2024-03-02T10:22:04;48.17;;;25.03;;
21392;SDS011;10857;52.228;21.026;2024-03-02T10:27:09;45.77;;;23.80;;
21392;SDS011;10857;52.228;21.026;2024-03-02T10:29:37;49.47;;;25.33;;
21392;SDS011;10857;52.228;21.026;2024-03-02T10:32:09;43.73;;;23.97;;
21392;SDS011;10857;52.228;21.026;2024-03-02T10:34:41;43.83;;;23.63;;
21392;SDS011;10857;52.228;21.026;2024-03-02T10:37:10;45.87;;;24.10;;
21392;SDS011;10857;52.228;21.026;2024-03-02T10:39:39;48.47;;;25.10;;
21392;SDS011;10857;52.228;21.026;2024-03-02T10:42:07;47.07;;;23.93;;
21392;SDS011;10857;52.228;21.026;2024-03-02T10:44:35;49.07;;;24.17;;
21392;SDS011;10857;52.228;21.026;2024-03-02T10:47:03;49.20;;;24.97;;
21392;SDS011;10857;52.228;21.026;2024-03-02T10:49:32;48.00;;;24.33;;
21392;SDS011;10857;52.228;21.026;2024-03-02T10:52:00;46.17;;;23.70;;
21392;SDS011;10857;52.228;21.026;2024-03-02T10:54:27;48.47;;;24.23;;
21392;SDS011;10857;52.228;21.026;2024-03-02T10:57:04;45.63;;;24.70;;
21392;SDS011;10857;52.228;21.026;2024-03-02T10:59:34;46.53;;;24.57;;
21392;SDS011;10857;52.228;21.026;2024-03-02T11:02:03;49.27;;;25.37;;
21392;SDS011;10857;52.228;21.026;2024-03-02T11:04:34;49.17;;;24.93;;
21392;SDS011;10857;52.228;21.026;2024-03-02T11:07:08;52.23;;;27.03;;
21392;SDS011;10857;52.228;21.026;2024-03-02T11:09:41;48.07;;;26.13;;
21392;SDS011;10857;52.228;21.026;2024-03-02T11:12:30;48.77;;;26.73;;
21392;SDS011;10857;52.228;21.026;2024-03-02T11:15:04;49.57;;;26.30;;
21392;SDS011;10857;52.228;21.026;2024-03-02T11:17:38;49.20;;;26.23;;
21392;SDS011;10857;52.228;21.026;2024-03-02T11:20:07;50.60;;;27.27;;
21392;SDS011;10857;52.228;21.026;2024-03-02T11:22:36;47.93;;;27.37;;
21392;SDS011;10857;52.228;21.026;2024-03-02T11:25:03;52.50;;;27.27;;
21392;SDS011;10857;52.228;21.026;2024-03-02T11:27:58;54.93;;;29.10;;
21392;SDS011;10857;52.228;21.026;2024-03-02T11:33:01;57.50;;;29.47;;
21392;SDS011;10857;52.228;21.026;2024-03-02T11:35:42;56.93;;;31.50;;
21392;SDS011;10857;52.228;21.026;2024-03-02T11:38:12;54.20;;;30.57;;
21392;SDS011;10857;52.228;21.026;2024-03-02T11:40:39;55.70;;;31.10;;
21392;SDS011;10857;52.228;21.026;2024-03-02T11:43:07;61.33;;;32.73;;
21392;SDS011;10857;52.228;21.026;2024-03-02T11:45:36;61.40;;;33.10;;
21392;SDS011;10857;52.228;21.026;2024-03-02T11:48:08;59.13;;;32.73;;
21392;SDS011;10857;52.228;21.026;2024-03-02T11:50:40;63.30;;;34.40;;
21392;SDS011;10857;52.228;21.026;2024-03-02T11:53:09;64.00;;;34.33;;
21392;SDS011;10857;52.228;21.026;2024-03-02T11:55:37;68.17;;;35.13;;
21392;SDS011;10857;52.228;21.026;2024-03-02T11:58:09;60.23;;;34.43;;
21392;SDS011;10857;52.228;21.026;2024-03-02T12:00:36;62.40;;;35.17;;
21392;SDS011;10857;52.228;21.026;2024-03-02T12:03:06;66.70;;;35.47;;
21392;SDS011;10857;52.228;21.026;2024-03-02T12:05:35;64.40;;;34.73;;
21392;SDS011;10857;52.228;21.026;2024-03-02T12:08:03;68.80;;;35.83;;
21392;SDS011;10857;52.228;21.026;2024-03-02T12:10:31;63.27;;;35.87;;
21392;SDS011;10857;52.228;21.026;2024-03-02T12:13:00;67.77;;;36.53;;
21392;SDS011;10857;52.228;21.026;2024-03-02T12:15:29;64.50;;;35.37;;
21392;SDS011;10857;52.228;21.026;2024-03-02T12:17:58;60.15;;;37.67;;
21392;SDS011;10857;52.228;21.026;2024-03-02T12:20:26;59.05;;;35.55;;
21392;SDS011;10857;52.228;21.026;2024-03-02T12:22:57;61.33;;;34.75;;
21392;SDS011;10857;52.228;21.026;2024-03-02T12:25:26;59.63;;;35.13;;
21392;SDS011;10857;52.228;21.026;2024-03-02T12:27:54;65.40;;;35.55;;
21392;SDS011;10857;52.228;21.026;2024-03-02T12:30:23;63.88;;;35.22;;
21392;SDS011;10857;52.228;21.026;2024-03-02T12:32:50;62.03;;;35.43;;
21392;SDS011;10857;52.228;21.026;2024-03-02T12:35:17;64.63;;;35.15;;
21392;SDS011;10857;52.228;21.026;2024-03-02T12:37:48;61.22;;;35.55;;
21392;SDS011;10857;52.228;21.026;2024-03-02T12:40:17;65.50;;;36.35;;
21392;SDS011;10857;52.228;21.026;2024-03-02T12:42:48;61.70;;;34.25;;
21392;SDS011;10857;52.228;21.026;2024-03-02T12:45:16;62.00;;;33.95;;
21392;SDS011;10857;52.228;21.026;2024-03-02T12:47:51;60.55;;;35.25;;
21392;SDS011;10857;52.228;21.026;2024-03-02T12:50:20;58.22;;;33.65;;
21392;SDS011;10857;52.228;21.026;2024-03-02T12:52:57;54.10;;;32.78;;
21392;SDS011;10857;52.228;21.026;2024-03-02T12:55:24;57.58;;;33.53;;
21392;SDS011;10857;52.228;21.026;2024-03-02T12:57:52;57.08;;;33.35;;
21392;SDS011;10857;52.228;21.026;2024-03-02T13:00:20;63.47;;;34.50;;
21392;SDS011;10857;52.228;21.026;2024-03-02T13:02:49;59.10;;;34.33;;
21392;SDS011;10857;52.228;21.026;2024-03-02T13:05:18;58.22;;;33.67;;
21392;SDS011;10857;52.228;21.026;2024-03-02T13:07:46;60.67;;;33.90;;
21392;SDS011;10857;52.228;21.026;2024-03-02T13:10:14;58.97;;;33.80;;
21392;SDS011;10857;52.228;21.026;2024-03-02T13:12:42;57.67;;;34.20;;
21392;SDS011;10857;52.228;21.026;2024-03-02T13:15:09;57.45;;;33.72;;
21392;SDS011;10857;52.228;21.026;2024-03-02T13:17:44;58.13;;;33.93;;
21392;SDS011;10857;52.228;21.026;2024-03-02T13:20:12;59.13;;;33.80;;
21392;SDS011;10857;52.228;21.026;2024-03-02T13:22:41;59.50;;;34.20;;
21392;SDS011;10857;52.228;21.026;2024-03-02T13:25:08;63.70;;;34.83;;
21392;SDS011;10857;52.228;21.026;2024-03-02T13:27:38;59.33;;;34.05;;
21392;SDS011;10857;52.228;21.026;2024-03-02T13:30:06;60.90;;;34.50;;
21392;SDS011;10857;52.228;21.026;2024-03-02T13:32:36;58.72;;;34.03;;
21392;SDS011;10857;52.228;21.026;2024-03-02T13:35:03;58.40;;;34.20;;
21392;SDS011;10857;52.228;21.026;2024-03-02T13:37:31;61.63;;;35.58;;
21392;SDS011;10857;52.228;21.026;2024-03-02T13:39:58;58.17;;;35.42;;
21392;SDS011;10857;52.228;21.026;2024-03-02T13:42:26;59.00;;;35.35;;
21392;SDS011;10857;52.228;21.026;2024-03-02T13:44:54;64.05;;;36.25;;
21392;SDS011;10857;52.228;21.026;2024-03-02T13:47:21;62.85;;;36.03;;
21392;SDS011;10857;52.228;21.026;2024-03-02T13:49:48;60.37;;;35.47;;
21392;SDS011;10857;52.228;21.026;2024-03-02T13:52:16;64.03;;;35.40;;
21392;SDS011;10857;52.228;21.026;2024-03-02T13:54:44;60.50;;;35.47;;
21392;SDS011;10857;52.228;21.026;2024-03-02T13:57:13;58.47;;;34.57;;
21392;SDS011;10857;52.228;21.026;2024-03-02T13:59:41;69.47;;;36.43;;
21392;SDS011;10857;52.228;21.026;2024-03-02T14:02:09;64.43;;;36.23;;
21392;SDS011;10857;52.228;21.026;2024-03-02T14:04:38;60.77;;;36.13;;
21392;SDS011;10857;52.228;21.026;2024-03-02T14:07:07;64.93;;;36.20;;
21392;SDS011;10857;52.228;21.026;2024-03-02T14:09:34;63.47;;;35.57;;
21392;SDS011;10857;52.228;21.026;2024-03-02T14:12:02;66.10;;;36.80;;
21392;SDS011;10857;52.228;21.026;2024-03-02T14:14:30;67.20;;;36.67;;
21392;SDS011;10857;52.228;21.026;2024-03-02T14:16:57;64.67;;;36.63;;
21392;SDS011;10857;52.228;21.026;2024-03-02T14:19:32;68.90;;;36.07;;
21392;SDS011;10857;52.228;21.026;2024-03-02T14:21:59;57.77;;;33.93;;